sensor_id;sensor_type;location;lat;lon;timestamp;P1;durP1;ratioP1;P2;durP2;ratioP2
21505;SDS011;10914;48.886;9.394;2022-09-09T00:06:22;23.02;;;21.85;;
21505;SDS011;10914;48.886;9.394;2022-09-09T00:08:52;24.42;;;23.08;;
21505;SDS011;10914;48.886;9.394;2022-09-09T00:11:22;25.25;;;23.60;;
21505;SDS011;10914;48.886;9.394;2022-09-09T00:13:51;25.10;;;23.80;;
21505;SDS011;10914;48.886;9.394;2022-09-09T00:16:19;26.55;;;24.85;;
21505;SDS011;10914;48.886;9.394;2022-09-09T00:24:31;23.98;;;22.75;;
21505;SDS011;10914;48.886;9.394;2022-09-09T00:27:01;22.88;;;21.67;;
21505;SDS011;10914;48.886;9.394;2022-09-09T00:29:43;23.80;;;22.45;;
21505;SDS011;10914;48.886;9.394;2022-09-09T00:32:13;24.60;;;23.08;;
21505;SDS011;10914;48.886;9.394;2022-09-09T00:35:42;24.60;;;23.20;;
21505;SDS011;10914;48.886;9.394;2022-09-09T00:37:34;26.95;;;25.55;;
21505;SDS011;10914;48.886;9.394;2022-09-09T00:40:00;26.30;;;24.90;;
21505;SDS011;10914;48.886;9.394;2022-09-09T00:42:40;23.27;;;21.98;;
21505;SDS011;10914;48.886;9.394;2022-09-09T00:47:39;26.98;;;25.48;;
21505;SDS011;10914;48.886;9.394;2022-09-09T00:50:19;24.77;;;23.40;;
21505;SDS011;10914;48.886;9.394;2022-09-09T00:53:05;25.27;;;23.98;;
21505;SDS011;10914;48.886;9.394;2022-09-09T00:55:41;26.13;;;24.83;;
21505;SDS011;10914;48.886;9.394;2022-09-09T00:58:08;24.88;;;23.52;;
21505;SDS011;10914;48.886;9.394;2022-09-09T01:00:47;22.55;;;21.35;;
21505;SDS011;10914;48.886;9.394;2022-09-09T01:10:49;22.45;;;21.15;;
21505;SDS011;10914;48.886;9.394;2022-09-09T01:13:25;22.08;;;20.98;;
21505;SDS011;10914;48.886;9.394;2022-09-09T01:15:51;24.23;;;22.85;;
21505;SDS011;10914;48.886;9.394;2022-09-09T01:18:19;24.10;;;22.90;;
21505;SDS011;10914;48.886;9.394;2022-09-09T01:20:55;23.15;;;21.92;;
21505;SDS011;10914;48.886;9.394;2022-09-09T01:26:04;25.17;;;23.88;;
21505;SDS011;10914;48.886;9.394;2022-09-09T01:28:33;25.55;;;24.17;;
21505;SDS011;10914;48.886;9.394;2022-09-09T01:31:00;25.00;;;23.70;;
21505;SDS011;10914;48.886;9.394;2022-09-09T01:33:26;27.75;;;26.42;;
21505;SDS011;10914;48.886;9.394;2022-09-09T01:36:05;25.48;;;24.13;;
21505;SDS011;10914;48.886;9.394;2022-09-09T01:38:31;26.42;;;25.02;;
21505;SDS011;10914;48.886;9.394;2022-09-09T01:40:57;27.90;;;26.48;;
21505;SDS011;10914;48.886;9.394;2022-09-09T01:43:23;26.98;;;25.48;;
21505;SDS011;10914;48.886;9.394;2022-09-09T01:45:49;27.85;;;26.38;;
21505;SDS011;10914;48.886;9.394;2022-09-09T01:48:15;28.33;;;26.77;;
21505;SDS011;10914;48.886;9.394;2022-09-09T01:50:41;26.10;;;24.80;;
21505;SDS011;10914;48.886;9.394;2022-09-09T01:53:06;26.73;;;25.23;;
21505;SDS011;10914;48.886;9.394;2022-09-09T01:55:33;26.48;;;24.92;;
21505;SDS011;10914;48.886;9.394;2022-09-09T02:00:26;30.35;;;28.60;;
21505;SDS011;10914;48.886;9.394;2022-09-09T02:03:05;28.83;;;27.02;;
21505;SDS011;10914;48.886;9.394;2022-09-09T02:05:37;29.38;;;27.20;;
21505;SDS011;10914;48.886;9.394;2022-09-09T02:08:17;28.48;;;26.85;;
21505;SDS011;10914;48.886;9.394;2022-09-09T02:10:46;27.95;;;26.25;;
21505;SDS011;10914;48.886;9.394;2022-09-09T02:13:16;30.58;;;28.98;;
21505;SDS011;10914;48.886;9.394;2022-09-09T02:15:58;29.92;;;28.23;;
21505;SDS011;10914;48.886;9.394;2022-09-09T02:21:09;28.38;;;26.77;;
21505;SDS011;10914;48.886;9.394;2022-09-09T02:23:36;26.48;;;24.98;;
21505;SDS011;10914;48.886;9.394;2022-09-09T02:26:04;30.25;;;28.65;;
21505;SDS011;10914;48.886;9.394;2022-09-09T02:28:31;30.05;;;28.30;;
21505;SDS011;10914;48.886;9.394;2022-09-09T02:30:57;28.40;;;26.77;;
21505;SDS011;10914;48.886;9.394;2022-09-09T02:33:24;27.55;;;25.85;;
21505;SDS011;10914;48.886;9.394;2022-09-09T02:35:51;27.20;;;25.70;;
21505;SDS011;10914;48.886;9.394;2022-09-09T02:38:17;26.90;;;25.48;;
21505;SDS011;10914;48.886;9.394;2022-09-09T02:40:44;28.85;;;27.33;;
21505;SDS011;10914;48.886;9.394;2022-09-09T02:43:10;26.30;;;24.70;;
21505;SDS011;10914;48.886;9.394;2022-09-09T02:45:48;25.30;;;23.90;;
21505;SDS011;10914;48.886;9.394;2022-09-09T02:48:16;24.40;;;22.70;;
21505;SDS011;10914;48.886;9.394;2022-09-09T02:50:52;24.20;;;23.00;;
21505;SDS011;10914;48.886;9.394;2022-09-09T02:53:22;24.80;;;23.55;;
21505;SDS011;10914;48.886;9.394;2022-09-09T02:55:51;25.67;;;24.17;;
21505;SDS011;10914;48.886;9.394;2022-09-09T02:58:19;24.50;;;22.85;;
21505;SDS011;10914;48.886;9.394;2022-09-09T03:00:45;25.35;;;23.75;;
21505;SDS011;10914;48.886;9.394;2022-09-09T03:03:11;24.63;;;23.33;;
21505;SDS011;10914;48.886;9.394;2022-09-09T03:05:37;24.48;;;23.15;;
21505;SDS011;10914;48.886;9.394;2022-09-09T03:08:03;24.13;;;22.73;;
21505;SDS011;10914;48.886;9.394;2022-09-09T03:10:28;23.73;;;22.40;;
21505;SDS011;10914;48.886;9.394;2022-09-09T03:12:53;23.80;;;22.58;;
21505;SDS011;10914;48.886;9.394;2022-09-09T03:15:18;24.67;;;23.17;;
21505;SDS011;10914;48.886;9.394;2022-09-09T03:17:44;23.80;;;22.60;;
21505;SDS011;10914;48.886;9.394;2022-09-09T03:20:09;22.83;;;21.63;;
21505;SDS011;10914;48.886;9.394;2022-09-09T03:22:34;23.63;;;22.23;;
21505;SDS011;10914;48.886;9.394;2022-09-09T03:25:00;23.42;;;22.13;;
21505;SDS011;10914;48.886;9.394;2022-09-09T03:27:27;23.15;;;21.85;;
21505;SDS011;10914;48.886;9.394;2022-09-09T03:29:52;24.03;;;22.63;;
21505;SDS011;10914;48.886;9.394;2022-09-09T03:32:18;23.77;;;22.38;;
21505;SDS011;10914;48.886;9.394;2022-09-09T03:34:43;22.90;;;21.60;;
21505;SDS011;10914;48.886;9.394;2022-09-09T03:37:09;22.50;;;21.40;;
21505;SDS011;10914;48.886;9.394;2022-09-09T03:39:34;22.77;;;21.48;;
21505;SDS011;10914;48.886;9.394;2022-09-09T03:42:00;22.87;;;21.67;;
21505;SDS011;10914;48.886;9.394;2022-09-09T03:44:28;22.95;;;21.50;;
21505;SDS011;10914;48.886;9.394;2022-09-09T03:46:54;23.27;;;22.15;;
21505;SDS011;10914;48.886;9.394;2022-09-09T03:49:19;24.83;;;23.27;;
21505;SDS011;10914;48.886;9.394;2022-09-09T03:51:45;24.27;;;22.85;;
21505;SDS011;10914;48.886;9.394;2022-09-09T03:54:10;23.60;;;22.17;;
21505;SDS011;10914;48.886;9.394;2022-09-09T03:56:35;22.05;;;20.80;;
21505;SDS011;10914;48.886;9.394;2022-09-09T03:59:01;21.52;;;20.13;;
21505;SDS011;10914;48.886;9.394;2022-09-09T04:01:26;22.58;;;21.27;;
21505;SDS011;10914;48.886;9.394;2022-09-09T04:03:52;22.58;;;21.27;;
21505;SDS011;10914;48.886;9.394;2022-09-09T04:06:17;21.83;;;20.63;;
21505;SDS011;10914;48.886;9.394;2022-09-09T04:08:43;22.67;;;21.38;;
21505;SDS011;10914;48.886;9.394;2022-09-09T04:11:08;21.88;;;20.63;;
21505;SDS011;10914;48.886;9.394;2022-09-09T04:13:34;23.00;;;21.70;;
21505;SDS011;10914;48.886;9.394;2022-09-09T04:16:01;21.60;;;20.48;;
21505;SDS011;10914;48.886;9.394;2022-09-09T04:18:27;21.95;;;20.70;;
21505;SDS011;10914;48.886;9.394;2022-09-09T04:20:55;21.67;;;20.50;;
21505;SDS011;10914;48.886;9.394;2022-09-09T04:23:26;22.30;;;21.10;;
21505;SDS011;10914;48.886;9.394;2022-09-09T04:25:54;22.90;;;21.73;;
21505;SDS011;10914;48.886;9.394;2022-09-09T04:28:20;23.15;;;21.75;;
21505;SDS011;10914;48.886;9.394;2022-09-09T04:30:45;22.42;;;21.23;;
21505;SDS011;10914;48.886;9.394;2022-09-09T04:33:10;22.30;;;21.10;;
21505;SDS011;10914;48.886;9.394;2022-09-09T04:35:36;24.10;;;22.55;;
21505;SDS011;10914;48.886;9.394;2022-09-09T04:38:02;22.90;;;21.70;;
21505;SDS011;10914;48.886;9.394;2022-09-09T04:40:30;22.00;;;20.90;;
21505;SDS011;10914;48.886;9.394;2022-09-09T04:43:00;22.70;;;21.50;;
21505;SDS011;10914;48.886;9.394;2022-09-09T04:45:26;23.42;;;22.23;;
21505;SDS011;10914;48.886;9.394;2022-09-09T04:47:52;24.15;;;22.75;;
21505;SDS011;10914;48.886;9.394;2022-09-09T04:50:17;22.80;;;21.70;;
21505;SDS011;10914;48.886;9.394;2022-09-09T04:52:43;21.08;;;20.08;;
21505;SDS011;10914;48.886;9.394;2022-09-09T04:55:08;22.35;;;21.27;;
21505;SDS011;10914;48.886;9.394;2022-09-09T04:57:34;21.42;;;20.35;;
21505;SDS011;10914;48.886;9.394;2022-09-09T04:59:59;21.90;;;20.70;;
21505;SDS011;10914;48.886;9.394;2022-09-09T05:02:25;22.13;;;20.92;;
21505;SDS011;10914;48.886;9.394;2022-09-09T05:04:51;21.48;;;20.33;;
21505;SDS011;10914;48.886;9.394;2022-09-09T05:07:16;22.45;;;21.27;;
21505;SDS011;10914;48.886;9.394;2022-09-09T05:09:41;22.40;;;21.00;;
21505;SDS011;10914;48.886;9.394;2022-09-09T05:12:06;21.85;;;20.65;;
21505;SDS011;10914;48.886;9.394;2022-09-09T05:14:31;23.00;;;21.73;;
21505;SDS011;10914;48.886;9.394;2022-09-09T05:16:56;22.67;;;21.58;;
21505;SDS011;10914;48.886;9.394;2022-09-09T05:19:22;25.38;;;24.00;;
21505;SDS011;10914;48.886;9.394;2022-09-09T05:21:48;26.38;;;24.83;;
21505;SDS011;10914;48.886;9.394;2022-09-09T05:24:13;24.63;;;23.33;;
21505;SDS011;10914;48.886;9.394;2022-09-09T05:26:38;27.88;;;26.48;;
21505;SDS011;10914;48.886;9.394;2022-09-09T05:29:03;29.67;;;28.20;;
21505;SDS011;10914;48.886;9.394;2022-09-09T05:31:30;23.20;;;22.10;;
21505;SDS011;10914;48.886;9.394;2022-09-09T05:33:55;33.72;;;31.83;;
21505;SDS011;10914;48.886;9.394;2022-09-09T05:36:21;28.38;;;26.73;;
21505;SDS011;10914;48.886;9.394;2022-09-09T05:38:46;25.73;;;24.42;;
21505;SDS011;10914;48.886;9.394;2022-09-09T05:41:12;25.73;;;24.23;;
21505;SDS011;10914;48.886;9.394;2022-09-09T05:43:38;25.60;;;24.30;;
21505;SDS011;10914;48.886;9.394;2022-09-09T05:46:13;24.77;;;23.58;;
21505;SDS011;10914;48.886;9.394;2022-09-09T05:48:39;26.02;;;24.73;;
21505;SDS011;10914;48.886;9.394;2022-09-09T05:51:05;24.52;;;23.15;;
21505;SDS011;10914;48.886;9.394;2022-09-09T05:53:34;30.55;;;28.95;;
21505;SDS011;10914;48.886;9.394;2022-09-09T05:56:03;23.23;;;22.02;;
21505;SDS011;10914;48.886;9.394;2022-09-09T05:58:29;23.33;;;22.13;;
21505;SDS011;10914;48.886;9.394;2022-09-09T06:01:02;27.67;;;26.30;;
21505;SDS011;10914;48.886;9.394;2022-09-09T06:03:28;29.60;;;28.17;;
21505;SDS011;10914;48.886;9.394;2022-09-09T06:05:57;26.37;;;25.07;;
21505;SDS011;10914;48.886;9.394;2022-09-09T06:08:22;27.40;;;26.00;;
21505;SDS011;10914;48.886;9.394;2022-09-09T06:10:47;22.38;;;21.13;;
21505;SDS011;10914;48.886;9.394;2022-09-09T06:13:12;22.25;;;20.95;;
21505;SDS011;10914;48.886;9.394;2022-09-09T06:15:38;23.27;;;22.13;;
21505;SDS011;10914;48.886;9.394;2022-09-09T06:18:03;24.37;;;22.67;;
21505;SDS011;10914;48.886;9.394;2022-09-09T06:20:28;22.55;;;21.45;;
21505;SDS011;10914;48.886;9.394;2022-09-09T06:22:55;22.08;;;20.88;;
21505;SDS011;10914;48.886;9.394;2022-09-09T06:25:20;22.90;;;21.67;;
21505;SDS011;10914;48.886;9.394;2022-09-09T06:27:48;23.75;;;22.55;;
21505;SDS011;10914;48.886;9.394;2022-09-09T06:30:14;22.58;;;21.17;;
21505;SDS011;10914;48.886;9.394;2022-09-09T06:32:39;24.38;;;22.75;;
21505;SDS011;10914;48.886;9.394;2022-09-09T06:35:05;22.85;;;21.55;;
21505;SDS011;10914;48.886;9.394;2022-09-09T06:37:30;23.13;;;21.75;;
21505;SDS011;10914;48.886;9.394;2022-09-09T06:39:56;22.23;;;20.88;;
21505;SDS011;10914;48.886;9.394;2022-09-09T06:42:21;21.92;;;20.63;;
21505;SDS011;10914;48.886;9.394;2022-09-09T06:44:46;21.98;;;20.67;;
21505;SDS011;10914;48.886;9.394;2022-09-09T06:47:11;21.95;;;20.75;;
21505;SDS011;10914;48.886;9.394;2022-09-09T06:49:37;21.40;;;20.25;;
21505;SDS011;10914;48.886;9.394;2022-09-09T06:52:02;21.25;;;20.15;;
21505;SDS011;10914;48.886;9.394;2022-09-09T06:54:27;21.30;;;20.10;;
21505;SDS011;10914;48.886;9.394;2022-09-09T06:56:53;21.30;;;20.20;;
21505;SDS011;10914;48.886;9.394;2022-09-09T06:59:18;20.70;;;19.50;;
21505;SDS011;10914;48.886;9.394;2022-09-09T07:01:44;20.40;;;19.10;;
21505;SDS011;10914;48.886;9.394;2022-09-09T07:04:09;20.40;;;19.40;;
21505;SDS011;10914;48.886;9.394;2022-09-09T07:06:39;20.40;;;19.38;;
21505;SDS011;10914;48.886;9.394;2022-09-09T07:09:06;20.73;;;19.52;;
21505;SDS011;10914;48.886;9.394;2022-09-09T07:11:33;21.58;;;20.25;;
21505;SDS011;10914;48.886;9.394;2022-09-09T07:13:58;22.85;;;21.58;;
21505;SDS011;10914;48.886;9.394;2022-09-09T07:16:24;24.92;;;23.65;;
21505;SDS011;10914;48.886;9.394;2022-09-09T07:18:50;22.65;;;21.45;;
21505;SDS011;10914;48.886;9.394;2022-09-09T07:21:15;23.63;;;22.27;;
21505;SDS011;10914;48.886;9.394;2022-09-09T07:23:41;23.25;;;21.98;;
21505;SDS011;10914;48.886;9.394;2022-09-09T07:26:11;23.60;;;22.30;;
21505;SDS011;10914;48.886;9.394;2022-09-09T07:28:37;23.13;;;21.70;;
21505;SDS011;10914;48.886;9.394;2022-09-09T07:31:02;23.00;;;21.77;;
21505;SDS011;10914;48.886;9.394;2022-09-09T07:33:28;23.23;;;21.77;;
21505;SDS011;10914;48.886;9.394;2022-09-09T07:36:01;23.00;;;21.70;;
21505;SDS011;10914;48.886;9.394;2022-09-09T07:38:26;22.48;;;21.17;;
21505;SDS011;10914;48.886;9.394;2022-09-09T07:40:52;22.65;;;21.45;;
21505;SDS011;10914;48.886;9.394;2022-09-09T07:43:17;22.37;;;21.00;;
21505;SDS011;10914;48.886;9.394;2022-09-09T07:45:43;21.65;;;20.35;;
21505;SDS011;10914;48.886;9.394;2022-09-09T07:48:08;24.05;;;22.75;;
21505;SDS011;10914;48.886;9.394;2022-09-09T07:50:34;20.38;;;19.35;;
21505;SDS011;10914;48.886;9.394;2022-09-09T07:52:59;21.23;;;19.95;;
21505;SDS011;10914;48.886;9.394;2022-09-09T07:55:25;24.70;;;23.40;;
21505;SDS011;10914;48.886;9.394;2022-09-09T07:57:52;23.52;;;22.38;;
21505;SDS011;10914;48.886;9.394;2022-09-09T08:00:17;24.85;;;23.35;;
21505;SDS011;10914;48.886;9.394;2022-09-09T08:02:43;24.65;;;23.23;;
21505;SDS011;10914;48.886;9.394;2022-09-09T08:05:08;20.87;;;19.63;;
21505;SDS011;10914;48.886;9.394;2022-09-09T08:07:34;23.65;;;22.27;;
21505;SDS011;10914;48.886;9.394;2022-09-09T08:09:59;23.42;;;22.13;;
21505;SDS011;10914;48.886;9.394;2022-09-09T08:12:25;26.77;;;25.35;;
21505;SDS011;10914;48.886;9.394;2022-09-09T08:14:50;26.00;;;24.23;;
21505;SDS011;10914;48.886;9.394;2022-09-09T08:17:16;20.77;;;19.77;;
21505;SDS011;10914;48.886;9.394;2022-09-09T08:19:41;28.55;;;26.85;;
21505;SDS011;10914;48.886;9.394;2022-09-09T08:22:06;25.47;;;24.07;;
21505;SDS011;10914;48.886;9.394;2022-09-09T08:24:32;25.05;;;23.65;;
21505;SDS011;10914;48.886;9.394;2022-09-09T08:26:58;22.00;;;20.58;;
21505;SDS011;10914;48.886;9.394;2022-09-09T08:29:23;21.08;;;20.02;;
21505;SDS011;10914;48.886;9.394;2022-09-09T08:31:52;20.97;;;19.87;;
21505;SDS011;10914;48.886;9.394;2022-09-09T08:34:19;20.58;;;19.48;;
21505;SDS011;10914;48.886;9.394;2022-09-09T08:36:46;21.67;;;20.42;;
21505;SDS011;10914;48.886;9.394;2022-09-09T08:39:12;21.15;;;19.95;;
21505;SDS011;10914;48.886;9.394;2022-09-09T08:47:39;20.48;;;19.17;;
21505;SDS011;10914;48.886;9.394;2022-09-09T08:52:16;20.98;;;19.88;;
21505;SDS011;10914;48.886;9.394;2022-09-09T08:54:44;20.25;;;19.10;;
21505;SDS011;10914;48.886;9.394;2022-09-09T08:57:20;19.63;;;18.33;;
21505;SDS011;10914;48.886;9.394;2022-09-09T08:59:46;20.55;;;19.35;;
21505;SDS011;10914;48.886;9.394;2022-09-09T09:05:07;20.02;;;18.88;;
21505;SDS011;10914;48.886;9.394;2022-09-09T09:10:24;24.83;;;23.25;;
21505;SDS011;10914;48.886;9.394;2022-09-09T09:12:55;20.60;;;19.42;;
21505;SDS011;10914;48.886;9.394;2022-09-09T09:15:23;19.38;;;18.23;;
21505;SDS011;10914;48.886;9.394;2022-09-09T09:17:48;18.80;;;17.52;;
21505;SDS011;10914;48.886;9.394;2022-09-09T09:20:14;21.50;;;20.38;;
21505;SDS011;10914;48.886;9.394;2022-09-09T09:22:46;20.90;;;19.75;;
21505;SDS011;10914;48.886;9.394;2022-09-09T09:25:27;20.40;;;19.40;;
21505;SDS011;10914;48.886;9.394;2022-09-09T09:28:00;20.15;;;18.83;;
21505;SDS011;10914;48.886;9.394;2022-09-09T09:30:30;20.30;;;19.27;;
21505;SDS011;10914;48.886;9.394;2022-09-09T09:33:02;22.80;;;21.50;;
21505;SDS011;10914;48.886;9.394;2022-09-09T09:35:29;20.45;;;19.20;;
21505;SDS011;10914;48.886;9.394;2022-09-09T09:37:55;22.73;;;21.43;;
21505;SDS011;10914;48.886;9.394;2022-09-09T09:40:20;22.57;;;21.37;;
21505;SDS011;10914;48.886;9.394;2022-09-09T09:43:01;19.25;;;18.20;;
21505;SDS011;10914;48.886;9.394;2022-09-09T09:45:33;21.48;;;20.27;;
21505;SDS011;10914;48.886;9.394;2022-09-09T09:48:03;20.80;;;19.70;;
21505;SDS011;10914;48.886;9.394;2022-09-09T09:50:29;23.30;;;21.77;;
21505;SDS011;10914;48.886;9.394;2022-09-09T09:52:55;22.23;;;20.80;;
21505;SDS011;10914;48.886;9.394;2022-09-09T09:55:22;21.42;;;20.33;;
21505;SDS011;10914;48.886;9.394;2022-09-09T09:57:49;21.77;;;20.52;;
21505;SDS011;10914;48.886;9.394;2022-09-09T10:00:18;20.33;;;19.03;;
21505;SDS011;10914;48.886;9.394;2022-09-09T10:02:45;19.35;;;18.33;;
21505;SDS011;10914;48.886;9.394;2022-09-09T10:07:39;19.75;;;18.58;;
21505;SDS011;10914;48.886;9.394;2022-09-09T10:10:04;19.27;;;18.08;;
21505;SDS011;10914;48.886;9.394;2022-09-09T10:15:31;20.25;;;19.13;;
21505;SDS011;10914;48.886;9.394;2022-09-09T10:18:12;21.30;;;20.20;;
21505;SDS011;10914;48.886;9.394;2022-09-09T10:26:25;20.25;;;19.35;;
21505;SDS011;10914;48.886;9.394;2022-09-09T10:31:24;19.27;;;18.30;;
21505;SDS011;10914;48.886;9.394;2022-09-09T10:36:36;18.67;;;17.67;;
21505;SDS011;10914;48.886;9.394;2022-09-09T10:41:52;19.95;;;18.95;;
21505;SDS011;10914;48.886;9.394;2022-09-09T10:44:21;19.48;;;18.50;;
21505;SDS011;10914;48.886;9.394;2022-09-09T10:51:54;18.38;;;17.38;;
21505;SDS011;10914;48.886;9.394;2022-09-09T10:57:01;19.80;;;18.60;;
21505;SDS011;10914;48.886;9.394;2022-09-09T10:59:29;18.05;;;16.95;;
21505;SDS011;10914;48.886;9.394;2022-09-09T11:02:01;17.02;;;16.10;;
21505;SDS011;10914;48.886;9.394;2022-09-09T11:04:33;17.10;;;16.13;;
21505;SDS011;10914;48.886;9.394;2022-09-09T11:07:00;17.13;;;16.23;;
21505;SDS011;10914;48.886;9.394;2022-09-09T11:09:30;18.27;;;17.10;;
21505;SDS011;10914;48.886;9.394;2022-09-09T11:11:56;17.60;;;16.60;;
21505;SDS011;10914;48.886;9.394;2022-09-09T11:19:35;17.40;;;16.33;;
21505;SDS011;10914;48.886;9.394;2022-09-09T11:22:05;18.65;;;17.73;;
21505;SDS011;10914;48.886;9.394;2022-09-09T11:24:37;18.77;;;17.67;;
21505;SDS011;10914;48.886;9.394;2022-09-09T11:27:13;19.63;;;18.48;;
21505;SDS011;10914;48.886;9.394;2022-09-09T11:32:17;17.25;;;16.40;;
21505;SDS011;10914;48.886;9.394;2022-09-09T11:42:40;19.02;;;17.92;;
21505;SDS011;10914;48.886;9.394;2022-09-09T11:45:20;22.50;;;20.63;;
21505;SDS011;10914;48.886;9.394;2022-09-09T11:47:52;28.60;;;26.20;;
21505;SDS011;10914;48.886;9.394;2022-09-09T11:52:44;21.52;;;20.08;;
21505;SDS011;10914;48.886;9.394;2022-09-09T11:55:26;22.65;;;21.08;;
21505;SDS011;10914;48.886;9.394;2022-09-09T11:58:04;21.90;;;20.27;;
21505;SDS011;10914;48.886;9.394;2022-09-09T12:02:55;22.53;;;21.20;;
21505;SDS011;10914;48.886;9.394;2022-09-09T12:05:21;21.70;;;20.35;;
21505;SDS011;10914;48.886;9.394;2022-09-09T12:07:49;21.40;;;20.02;;
21505;SDS011;10914;48.886;9.394;2022-09-09T12:10:32;25.67;;;24.05;;
21505;SDS011;10914;48.886;9.394;2022-09-09T12:13:08;23.80;;;22.23;;
21505;SDS011;10914;48.886;9.394;2022-09-09T12:15:34;23.83;;;22.35;;
21505;SDS011;10914;48.886;9.394;2022-09-09T12:17:59;24.95;;;23.63;;
21505;SDS011;10914;48.886;9.394;2022-09-09T12:20:31;19.85;;;18.65;;
21505;SDS011;10914;48.886;9.394;2022-09-09T12:25:59;19.35;;;18.35;;
21505;SDS011;10914;48.886;9.394;2022-09-09T12:31:10;18.58;;;17.60;;
21505;SDS011;10914;48.886;9.394;2022-09-09T12:33:42;21.48;;;20.38;;
21505;SDS011;10914;48.886;9.394;2022-09-09T12:36:11;17.60;;;16.70;;
21505;SDS011;10914;48.886;9.394;2022-09-09T12:38:39;16.63;;;15.77;;
21505;SDS011;10914;48.886;9.394;2022-09-09T12:41:05;16.75;;;15.95;;
21505;SDS011;10914;48.886;9.394;2022-09-09T12:43:31;16.92;;;16.02;;
21505;SDS011;10914;48.886;9.394;2022-09-09T12:46:03;16.85;;;16.05;;
21505;SDS011;10914;48.886;9.394;2022-09-09T12:48:34;17.38;;;16.50;;
21505;SDS011;10914;48.886;9.394;2022-09-09T12:51:01;16.77;;;15.98;;
21505;SDS011;10914;48.886;9.394;2022-09-09T12:55:58;18.00;;;17.10;;
21505;SDS011;10914;48.886;9.394;2022-09-09T12:58:24;16.60;;;15.80;;
21505;SDS011;10914;48.886;9.394;2022-09-09T13:00:51;16.75;;;15.95;;
21505;SDS011;10914;48.886;9.394;2022-09-09T13:03:21;16.58;;;15.88;;
21505;SDS011;10914;48.886;9.394;2022-09-09T13:05:47;16.92;;;16.10;;
21505;SDS011;10914;48.886;9.394;2022-09-09T13:08:13;16.58;;;15.77;;
21505;SDS011;10914;48.886;9.394;2022-09-09T13:13:04;16.57;;;15.77;;
21505;SDS011;10914;48.886;9.394;2022-09-09T13:15:30;17.30;;;16.40;;
21505;SDS011;10914;48.886;9.394;2022-09-09T13:17:59;18.13;;;17.13;;
21505;SDS011;10914;48.886;9.394;2022-09-09T13:20:26;18.20;;;17.30;;
21505;SDS011;10914;48.886;9.394;2022-09-09T13:22:52;18.02;;;17.23;;
21505;SDS011;10914;48.886;9.394;2022-09-09T13:27:59;18.77;;;17.88;;
21505;SDS011;10914;48.886;9.394;2022-09-09T13:35:35;18.38;;;17.45;;
21505;SDS011;10914;48.886;9.394;2022-09-09T13:38:12;20.23;;;19.23;;
21505;SDS011;10914;48.886;9.394;2022-09-09T13:40:38;20.35;;;19.25;;
21505;SDS011;10914;48.886;9.394;2022-09-09T13:43:03;21.73;;;20.73;;
21505;SDS011;10914;48.886;9.394;2022-09-09T13:45:30;19.75;;;18.75;;
21505;SDS011;10914;48.886;9.394;2022-09-09T13:47:55;19.08;;;18.08;;
21505;SDS011;10914;48.886;9.394;2022-09-09T13:50:22;21.50;;;20.40;;
21505;SDS011;10914;48.886;9.394;2022-09-09T13:52:48;19.92;;;18.92;;
21505;SDS011;10914;48.886;9.394;2022-09-09T13:55:16;19.63;;;18.73;;
21505;SDS011;10914;48.886;9.394;2022-09-09T14:00:16;20.13;;;19.13;;
21505;SDS011;10914;48.886;9.394;2022-09-09T14:02:41;18.63;;;17.73;;
21505;SDS011;10914;48.886;9.394;2022-09-09T14:05:09;18.80;;;17.80;;
21505;SDS011;10914;48.886;9.394;2022-09-09T14:07:34;18.75;;;17.80;;
21505;SDS011;10914;48.886;9.394;2022-09-09T14:09:59;21.60;;;20.60;;
21505;SDS011;10914;48.886;9.394;2022-09-09T14:12:25;18.77;;;17.88;;
21505;SDS011;10914;48.886;9.394;2022-09-09T14:14:50;18.37;;;17.47;;
21505;SDS011;10914;48.886;9.394;2022-09-09T14:17:15;18.08;;;17.17;;
21505;SDS011;10914;48.886;9.394;2022-09-09T14:19:40;18.88;;;17.88;;
21505;SDS011;10914;48.886;9.394;2022-09-09T14:22:06;19.70;;;18.80;;
21505;SDS011;10914;48.886;9.394;2022-09-09T14:24:31;19.90;;;19.00;;
21505;SDS011;10914;48.886;9.394;2022-09-09T14:26:56;20.55;;;19.50;;
21505;SDS011;10914;48.886;9.394;2022-09-09T14:29:22;19.77;;;18.88;;
21505;SDS011;10914;48.886;9.394;2022-09-09T14:31:47;19.50;;;18.50;;
21505;SDS011;10914;48.886;9.394;2022-09-09T14:34:12;19.33;;;18.33;;
21505;SDS011;10914;48.886;9.394;2022-09-09T14:36:39;18.20;;;17.40;;
21505;SDS011;10914;48.886;9.394;2022-09-09T14:39:04;17.35;;;16.45;;
21505;SDS011;10914;48.886;9.394;2022-09-09T14:41:30;18.10;;;17.08;;
21505;SDS011;10914;48.886;9.394;2022-09-09T14:43:55;16.42;;;15.60;;
21505;SDS011;10914;48.886;9.394;2022-09-09T14:46:21;17.85;;;16.80;;
21505;SDS011;10914;48.886;9.394;2022-09-09T14:48:46;16.85;;;16.13;;
21505;SDS011;10914;48.886;9.394;2022-09-09T14:51:18;16.58;;;15.82;;
21505;SDS011;10914;48.886;9.394;2022-09-09T14:53:47;17.15;;;16.20;;
21505;SDS011;10914;48.886;9.394;2022-09-09T14:56:14;17.23;;;16.38;;
21505;SDS011;10914;48.886;9.394;2022-09-09T14:58:40;16.90;;;16.10;;
21505;SDS011;10914;48.886;9.394;2022-09-09T15:01:06;17.58;;;16.50;;
21505;SDS011;10914;48.886;9.394;2022-09-09T15:03:31;17.58;;;16.73;;
21505;SDS011;10914;48.886;9.394;2022-09-09T15:05:57;18.63;;;17.63;;
21505;SDS011;10914;48.886;9.394;2022-09-09T15:08:23;17.38;;;16.45;;
21505;SDS011;10914;48.886;9.394;2022-09-09T15:10:48;17.63;;;16.63;;
21505;SDS011;10914;48.886;9.394;2022-09-09T15:13:15;18.02;;;17.02;;
21505;SDS011;10914;48.886;9.394;2022-09-09T15:15:41;17.98;;;17.08;;
21505;SDS011;10914;48.886;9.394;2022-09-09T15:18:07;18.90;;;17.90;;
21505;SDS011;10914;48.886;9.394;2022-09-09T15:20:32;18.50;;;17.60;;
21505;SDS011;10914;48.886;9.394;2022-09-09T15:22:57;18.00;;;17.00;;
21505;SDS011;10914;48.886;9.394;2022-09-09T15:25:22;18.20;;;17.20;;
21505;SDS011;10914;48.886;9.394;2022-09-09T15:27:47;18.37;;;17.47;;
21505;SDS011;10914;48.886;9.394;2022-09-09T15:30:13;20.95;;;19.88;;
21505;SDS011;10914;48.886;9.394;2022-09-09T15:32:38;20.73;;;19.73;;
21505;SDS011;10914;48.886;9.394;2022-09-09T15:35:03;20.73;;;19.73;;
21505;SDS011;10914;48.886;9.394;2022-09-09T15:37:28;19.10;;;18.20;;
21505;SDS011;10914;48.886;9.394;2022-09-09T15:39:54;20.90;;;19.75;;
21505;SDS011;10914;48.886;9.394;2022-09-09T15:42:19;22.25;;;21.13;;
21505;SDS011;10914;48.886;9.394;2022-09-09T15:44:44;19.20;;;18.17;;
21505;SDS011;10914;48.886;9.394;2022-09-09T15:47:10;18.77;;;17.80;;
21505;SDS011;10914;48.886;9.394;2022-09-09T15:49:35;19.80;;;18.88;;
21505;SDS011;10914;48.886;9.394;2022-09-09T15:52:00;19.30;;;18.40;;
21505;SDS011;10914;48.886;9.394;2022-09-09T15:54:30;19.15;;;18.17;;
21505;SDS011;10914;48.886;9.394;2022-09-09T15:56:59;20.75;;;19.75;;
21505;SDS011;10914;48.886;9.394;2022-09-09T15:59:25;19.88;;;18.98;;
21505;SDS011;10914;48.886;9.394;2022-09-09T16:01:52;23.48;;;22.38;;
21505;SDS011;10914;48.886;9.394;2022-09-09T16:04:18;21.53;;;20.23;;
21505;SDS011;10914;48.886;9.394;2022-09-09T16:06:48;20.58;;;19.67;;
21505;SDS011;10914;48.886;9.394;2022-09-09T16:09:13;19.88;;;18.98;;
21505;SDS011;10914;48.886;9.394;2022-09-09T16:11:39;20.50;;;19.43;;
21505;SDS011;10914;48.886;9.394;2022-09-09T16:14:04;19.90;;;18.90;;